| time (UTC) | temp F | wind direction | speed MPH | gust MPH | rain 1hr in | rain 24hr in | rain mn in | humidity % | barometer mb |
| 20260903150004 | 60 | 136 | 4.0 | 7.0 | 0.09 | 0.23 | 0.23 | 98 | 1011.9 |
| 20260903145505 | 60 | 140 | 4.0 | 7.0 | 0.10 | 0.23 | 0.23 | 98 | 1012.0 |
| 20260903145004 | 60 | 138 | 4.0 | 8.0 | 0.12 | 0.22 | 0.22 | 98 | 1012.0 |
| 20260903144503 | 60 | 134 | 4.0 | 8.0 | 0.14 | 0.22 | 0.22 | 98 | 1012.0 |
| 20260903144025 | 60 | 131 | 4.0 | 8.0 | 0.14 | 0.22 | 0.22 | 98 | 1012.1 |
| 20260903143503 | 60 | 132 | 3.0 | 8.0 | 0.15 | 0.22 | 0.22 | 98 | 1012.2 |
| 20260903143004 | 59 | 137 | 4.0 | 8.0 | 0.15 | 0.20 | 0.20 | 98 | 1012.4 |
| 20260903142503 | 59 | 137 | 3.0 | 7.0 | 0.15 | 0.20 | 0.20 | 98 | 1012.5 |
| 20260903142003 | 60 | 137 | 2.0 | 4.0 | 0.15 | 0.18 | 0.18 | 98 | 1012.5 |
| 20260903141525 | 59 | 133 | 2.0 | 4.0 | 0.15 | 0.18 | 0.18 | 98 | 1012.3 |
| 20260903141004 | 59 | 130 | 3.0 | 7.0 | 0.13 | 0.16 | 0.16 | 97 | 1012.4 |
| 20260903140503 | 59 | 134 | 3.0 | 7.0 | 0.13 | 0.15 | 0.15 | 97 | 1012.6 |
| 20260903140025 | 60 | 135 | 3.0 | 6.0 | 0.13 | 0.14 | 0.14 | 97 | 1012.6 |
| 20260903135525 | 60 | 134 | 3.0 | 7.0 | 0.12 | 0.13 | 0.13 | 97 | 1012.6 |
| 20260903135005 | 60 | 134 | 3.0 | 7.0 | 0.10 | 0.11 | 0.11 | 97 | 1012.7 |
| 20260903134525 | 60 | 132 | 3.0 | 7.0 | 0.08 | 0.08 | 0.08 | 97 | 1012.7 |
| 20260903134005 | 60 | 132 | 2.0 | 6.0 | 0.08 | 0.08 | 0.08 | 96 | 1013.0 |
| 20260903133505 | 60 | 128 | 3.0 | 7.0 | 0.07 | 0.07 | 0.07 | 96 | 1013.0 |
| 20260903133004 | 60 | 129 | 3.0 | 7.0 | 0.06 | 0.06 | 0.06 | 95 | 1013.0 |
| 20260903132504 | 60 | 133 | 4.0 | 8.0 | 0.04 | 0.04 | 0.04 | 95 | 1013.2 |
| 20260903132005 | 60 | 132 | 3.0 | 8.0 | 0.04 | 0.04 | 0.04 | 95 | 1013.2 |
| 20260903131504 | 61 | 122 | 3.0 | 7.0 | 0.03 | 0.03 | 0.03 | 95 | 1013.4 |
| 20260903131025 | 61 | 111 | 3.0 | 4.0 | 0.02 | 0.02 | 0.02 | 94 | 1013.2 |
| 20260903130503 | 61 | 113 | 3.0 | 7.0 | 0.02 | 0.02 | 0.02 | 92 | 1013.3 |
| 20260903130004 | 62 | 110 | 3.0 | 7.0 | 0.01 | 0.01 | 0.01 | 91 | 1013.3 |
| 20260903125503 | 62 | 100 | 3.0 | 7.0 | 0.01 | 0.01 | 0.01 | 90 | 1013.4 |
| 20260903125003 | 63 | 113 | 3.0 | 8.0 | 0.00 | 0.00 | 0.00 | 89 | 1013.4 |
| 20260903124504 | 63 | 119 | 3.0 | 8.0 | 0.00 | 0.00 | 0.00 | 86 | 1013.3 |
| 20260903124004 | 64 | 119 | 3.0 | 7.0 | 0.00 | 0.00 | 0.00 | 84 | 1013.4 |
| 20260903123504 | 64 | 124 | 3.0 | 6.0 | 0.00 | 0.00 | 0.00 | 84 | 1013.4 |
| 20260903123004 | 64 | 122 | 3.0 | 7.0 | 0.00 | 0.00 | 0.00 | 83 | 1013.3 |
| 20260903122524 | 64 | 121 | 4.0 | 9.0 | 0.00 | 0.00 | 0.00 | 82 | 1013.4 |
| 20260903122003 | 64 | 118 | 3.0 | 10.0 | 0.00 | 0.00 | 0.00 | 81 | 1013.3 |
| 20260903121504 | 64 | 116 | 3.0 | 10.0 | 0.00 | 0.00 | 0.00 | 82 | 1013.5 |
| 20260903121004 | 64 | 117 | 3.0 | 7.0 | 0.00 | 0.00 | 0.00 | 82 | 1013.5 |
| 20260903120504 | 64 | 116 | 3.0 | 6.0 | 0.00 | 0.00 | 0.00 | 82 | 1013.7 |
| 20260903120004 | 64 | 117 | 3.0 | 8.0 | 0.00 | 0.00 | 0.00 | 83 | 1013.8 |
| 20260903115524 | 65 | 122 | 3.0 | 8.0 | 0.00 | 0.00 | 0.00 | 82 | 1013.7 |
| 20260903115004 | 65 | 119 | 3.0 | 10.0 | 0.00 | 0.00 | 0.00 | 81 | 1013.8 |
| 20260903114504 | 65 | 117 | 3.0 | 10.0 | 0.00 | 0.00 | 0.00 | 81 | 1013.8 |
| 20260903114004 | 65 | 122 | 3.0 | 7.0 | 0.00 | 0.00 | 0.00 | 80 | 1014.0 |
| 20260903113503 | 65 | 117 | 2.0 | 6.0 | 0.00 | 0.00 | 0.00 | 80 | 1014.0 |
| 20260903113025 | 65 | 117 | 3.0 | 8.0 | 0.00 | 0.00 | 0.00 | 80 | 1014.1 |
| 20260903112524 | 65 | 121 | 3.0 | 8.0 | 0.00 | 0.00 | 0.00 | 78 | 1014.0 |
| 20260903112004 | 65 | 107 | 2.0 | 7.0 | 0.00 | 0.00 | 0.00 | 80 | 1014.2 |
| 20260903111525 | 65 | 93 | 2.0 | 4.0 | 0.00 | 0.00 | 0.00 | 78 | 1014.0 |
| 20260903111004 | 65 | 93 | 2.0 | 6.0 | 0.00 | 0.00 | 0.00 | 77 | 1014.1 |
| 20260903110503 | 66 | 94 | 2.0 | 6.0 | 0.00 | 0.00 | 0.00 | 79 | 1014.1 |
| 20260903110003 | 66 | 89 | 2.0 | 7.0 | 0.00 | 0.00 | 0.00 | 77 | 1014.1 |
| 20260903105504 | 66 | 108 | 3.0 | 9.0 | 0.00 | 0.00 | 0.00 | 75 | 1014.1 |
| 20260903105005 | 66 | 119 | 4.0 | 9.0 | 0.00 | 0.00 | 0.00 | 74 | 1014.4 |
| 20260903104504 | 66 | 114 | 3.0 | 7.0 | 0.00 | 0.00 | 0.00 | 75 | 1014.2 |
| 20260903104004 | 67 | 116 | 3.0 | 7.0 | 0.00 | 0.00 | 0.00 | 73 | 1014.3 |
| 20260903103504 | 67 | 114 | 3.0 | 9.0 | 0.00 | 0.00 | 0.00 | 73 | 1014.3 |
| 20260903103004 | 67 | 106 | 3.0 | 9.0 | 0.00 | 0.00 | 0.00 | 74 | 1014.3 |
| 20260903102503 | 67 | 93 | 2.0 | 8.0 | 0.00 | 0.00 | 0.00 | 73 | 1014.3 |
| 20260903102003 | 67 | 91 | 2.0 | 7.0 | 0.00 | 0.00 | 0.00 | 77 | 1014.2 |
| 20260903101504 | 67 | 98 | 3.0 | 7.0 | 0.00 | 0.00 | 0.00 | 75 | 1014.3 |
| 20260903101005 | 67 | 98 | 3.0 | 8.0 | 0.00 | 0.00 | 0.00 | 73 | 1014.3 |
| 20260903100504 | 68 | 108 | 4.0 | 8.0 | 0.00 | 0.00 | 0.00 | 69 | 1014.5 |
| 20260903100004 | 70 | 113 | 3.0 | 8.0 | 0.00 | 0.00 | 0.00 | 69 | 1014.4 |
| 20260903095503 | 69 | 94 | 3.0 | 7.0 | 0.00 | 0.00 | 0.00 | 74 | 1014.6 |
| 20260903095004 | 68 | 88 | 2.0 | 7.0 | 0.00 | 0.00 | 0.00 | 72 | 1014.5 |
| 20260903094504 | 69 | 71 | 2.0 | 7.0 | 0.00 | 0.00 | 0.00 | 72 | 1014.6 |
| 20260903094004 | 69 | 71 | 2.0 | 6.0 | 0.00 | 0.00 | 0.00 | 72 | 1014.5 |
| 20260903093504 | 68 | 95 | 2.0 | 6.0 | 0.00 | 0.00 | 0.00 | 72 | 1014.5 |
| 20260903093003 | 67 | 99 | 3.0 | 8.0 | 0.00 | 0.00 | 0.00 | 75 | 1014.5 |
| 20260903092505 | 67 | 101 | 3.0 | 8.0 | 0.00 | 0.00 | 0.00 | 75 | 1014.6 |
| 20260903092005 | 67 | 97 | 3.0 | 8.0 | 0.00 | 0.00 | 0.00 | 74 | 1014.7 |
| 20260903091504 | 67 | 81 | 2.0 | 6.0 | 0.00 | 0.02 | 0.00 | 76 | 1014.7 |
| 20260903091005 | 67 | 84 | 3.0 | 8.0 | 0.00 | 0.03 | 0.00 | 78 | 1014.6 |
| 20260903090504 | 66 | 96 | 3.0 | 8.0 | 0.00 | 0.03 | 0.00 | 76 | 1014.7 |
| 20260903090026 | 67 | 104 | 3.0 | 8.0 | 0.00 | 0.03 | 0.00 | 77 | 1014.6 |
| 20260903085505 | 66 | 104 | 3.0 | 9.0 | 0.00 | 0.03 | 0.00 | 79 | 1014.8 |
| 20260903085004 | 65 | 102 | 2.0 | 9.0 | 0.00 | 0.03 | 0.00 | 80 | 1014.8 |
| 20260903084504 | 65 | 110 | 2.0 | 6.0 | 0.00 | 0.03 | 0.00 | 83 | 1014.9 |
| 20260903084005 | 65 | 119 | 3.0 | 7.0 | 0.00 | 0.03 | 0.00 | 83 | 1014.9 |
| 20260903083525 | 65 | 119 | 3.0 | 8.0 | 0.00 | 0.03 | 0.00 | 81 | 1015.1 |
| 20260903083005 | 65 | 110 | 3.0 | 8.0 | 0.00 | 0.03 | 0.00 | 84 | 1014.9 |
| 20260903082505 | 64 | 101 | 3.0 | 7.0 | 0.00 | 0.03 | 0.00 | 85 | 1015.1 |
| 20260903082025 | 64 | 106 | 3.0 | 8.0 | 0.00 | 0.03 | 0.00 | 86 | 1015.1 |
| 20260903081505 | 64 | 108 | 3.0 | 8.0 | 0.00 | 0.03 | 0.00 | 84 | 1015.2 |
| 20260903081005 | 64 | 91 | 2.0 | 6.0 | 0.00 | 0.03 | 0.00 | 85 | 1015.1 |
| 20260903080505 | 64 | 76 | 2.0 | 7.0 | 0.00 | 0.03 | 0.00 | 85 | 1014.9 |
| 20260903080004 | 64 | 89 | 2.0 | 7.0 | 0.00 | 0.03 | 0.00 | 86 | 1015.2 |
| 20260903075526 | 63 | 101 | 2.0 | 7.0 | 0.00 | 0.03 | 0.00 | 85 | 1015.3 |
| 20260903075004 | 63 | 102 | 3.0 | 7.0 | 0.00 | 0.03 | 0.00 | 85 | 1015.1 |
| 20260903074504 | 64 | 101 | 3.0 | 7.0 | 0.00 | 0.03 | 0.00 | 84 | 1015.4 |
| 20260903074026 | 64 | 97 | 3.0 | 8.0 | 0.00 | 0.03 | 0.00 | 83 | 1015.1 |
| 20260903073526 | 64 | 93 | 2.0 | 8.0 | 0.00 | 0.03 | 0.00 | 85 | 1015.2 |
| 20260903073005 | 63 | 92 | 2.0 | 6.0 | 0.00 | 0.03 | 0.00 | 85 | 1015.1 |
| 20260903072505 | 62 | 87 | 2.0 | 6.0 | 0.00 | 0.03 | 0.00 | 85 | 1015.2 |
| 20260903072027 | 62 | 89 | 3.0 | 6.0 | 0.00 | 0.03 | 0.00 | 85 | 1015.4 |
| 20260903071504 | 62 | 90 | 2.0 | 6.0 | 0.00 | 0.03 | 0.00 | 86 | 1015.2 |
| 20260903071005 | 62 | 85 | 2.0 | 6.0 | 0.00 | 0.03 | 0.00 | 85 | 1015.2 |
| 20260903070504 | 61 | 89 | 2.0 | 4.0 | 0.00 | 0.03 | 0.00 | 86 | 1015.2 |
| 20260903070027 | 61 | 88 | 2.0 | 4.0 | 0.00 | 0.03 | 0.00 | 86 | 1015.1 |
| 20260903065505 | 61 | 87 | 2.0 | 6.0 | 0.00 | 0.03 | 0.00 | 86 | 1015.4 |
| 20260903065006 | 60 | 91 | 2.0 | 7.0 | 0.00 | 0.03 | 0.00 | 86 | 1015.2 |
| 20260903064504 | 60 | 91 | 2.0 | 7.0 | 0.00 | 0.03 | 0.00 | 86 | 1015.2 |
| 20260903064005 | 60 | 91 | 2.0 | 6.0 | 0.00 | 0.03 | 0.00 | 87 | 1015.4 |
| 20260903063526 | 60 | 95 | 2.0 | 6.0 | 0.00 | 0.03 | 0.00 | 87 | 1015.5 |
| 20260903063005 | 60 | 96 | 2.0 | 6.0 | 0.00 | 0.03 | 0.00 | 88 | 1015.4 |
| 20260903062505 | 60 | 94 | 2.0 | 4.0 | 0.00 | 0.03 | 0.00 | 88 | 1015.4 |
| 20260903062006 | 59 | 98 | 3.0 | 4.0 | 0.00 | 0.03 | 0.00 | 88 | 1015.4 |
| 20260903061505 | 59 | 102 | 3.0 | 6.0 | 0.00 | 0.03 | 0.00 | 87 | 1015.5 |
| 20260903061005 | 59 | 103 | 3.0 | 6.0 | 0.00 | 0.03 | 0.00 | 88 | 1015.4 |
| 20260903060504 | 59 | 104 | 3.0 | 6.0 | 0.00 | 0.04 | 0.00 | 88 | 1015.4 |
| 20260903060005 | 58 | 112 | 3.0 | 8.0 | 0.00 | 0.04 | 0.00 | 89 | 1015.4 |
| 20260903055504 | 58 | 119 | 3.0 | 8.0 | 0.00 | 0.04 | 0.00 | 89 | 1015.3 |
| 20260903055005 | 58 | 120 | 3.0 | 8.0 | 0.00 | 0.04 | 0.00 | 90 | 1015.3 |
| 20260903054504 | 58 | 115 | 3.0 | 8.0 | 0.00 | 0.04 | 0.00 | 91 | 1015.3 |
| 20260903054005 | 57 | 112 | 3.0 | 7.0 | 0.00 | 0.04 | 0.00 | 91 | 1015.4 |
| 20260903053504 | 57 | 110 | 3.0 | 6.0 | 0.00 | 0.04 | 0.00 | 92 | 1015.2 |
| 20260903053005 | 56 | 108 | 2.0 | 4.0 | 0.00 | 0.04 | 0.00 | 93 | 1015.4 |
| 20260903052505 | 56 | 106 | 2.0 | 4.0 | 0.00 | 0.04 | 0.00 | 94 | 1015.5 |
| 20260903052005 | 56 | 112 | 2.0 | 4.0 | 0.00 | 0.04 | 0.00 | 94 | 1015.3 |
| 20260903051525 | 55 | 117 | 2.0 | 4.0 | 0.00 | 0.04 | 0.00 | 94 | 1015.4 |
| 20260903051005 | 55 | 118 | 3.0 | 6.0 | 0.00 | 0.04 | 0.00 | 95 | 1015.4 |
| 20260903050504 | 55 | 118 | 3.0 | 6.0 | 0.00 | 0.04 | 0.00 | 95 | 1015.4 |
| 20260903050006 | 54 | 116 | 3.0 | 4.0 | 0.00 | 0.04 | 0.00 | 95 | 1015.3 |
| 20260903045505 | 54 | 116 | 3.0 | 6.0 | 0.00 | 0.04 | 0.00 | 95 | 1015.5 |
| 20260903045026 | 54 | 111 | 2.0 | 6.0 | 0.00 | 0.04 | 0.00 | 95 | 1015.5 |
| 20260903044505 | 54 | 102 | 2.0 | 3.0 | 0.00 | 0.04 | 0.00 | 96 | 1015.3 |
| 20260903044005 | 54 | 98 | 2.0 | 3.0 | 0.00 | 0.04 | 0.00 | 96 | 1015.4 |
| 20260903043504 | 54 | 96 | 2.0 | 3.0 | 0.00 | 0.04 | 0.00 | 95 | 1015.5 |
| 20260903043004 | 54 | 103 | 2.0 | 3.0 | 0.00 | 0.04 | 0.00 | 95 | 1015.5 |
| 20260903042505 | 54 | 106 | 2.0 | 3.0 | 0.00 | 0.05 | 0.00 | 94 | 1015.5 |
| 20260903042025 | 54 | 100 | 2.0 | 3.0 | 0.00 | 0.05 | 0.00 | 94 | 1015.3 |
| 20260903041504 | 54 | 95 | 2.0 | 3.0 | 0.00 | 0.05 | 0.00 | 94 | 1015.6 |
| 20260903041005 | 54 | 95 | 2.0 | 3.0 | 0.00 | 0.05 | 0.00 | 94 | 1015.5 |
| 20260903040504 | 54 | 93 | 2.0 | 3.0 | 0.00 | 0.05 | 0.00 | 94 | 1015.5 |
| 20260903040004 | 55 | 89 | 2.0 | 3.0 | 0.00 | 0.06 | 0.00 | 93 | 1015.3 |
| 20260903035525 | 55 | 97 | 2.0 | 3.0 | 0.00 | 0.06 | 0.00 | 93 | 1015.5 |
| 20260903035004 | 55 | 105 | 2.0 | 4.0 | 0.00 | 0.06 | 0.00 | 93 | 1015.4 |
| 20260903034525 | 55 | 99 | 2.0 | 4.0 | 0.00 | 0.06 | 0.00 | 93 | 1015.4 |
| 20260903034005 | 55 | 96 | 2.0 | 4.0 | 0.00 | 0.06 | 0.00 | 93 | 1015.5 |
| 20260903033505 | 55 | 99 | 2.0 | 4.0 | 0.00 | 0.06 | 0.00 | 93 | 1015.5 |
| 20260903033005 | 56 | 96 | 2.0 | 3.0 | 0.00 | 0.06 | 0.00 | 93 | 1015.4 |
| 20260903032504 | 56 | 92 | 2.0 | 3.0 | 0.00 | 0.06 | 0.00 | 93 | 1015.5 |
| 20260903032004 | 55 | 89 | 2.0 | 3.0 | 0.00 | 0.06 | 0.00 | 94 | 1015.6 |
| 20260903031504 | 55 | 92 | 2.0 | 3.0 | 0.00 | 0.06 | 0.00 | 93 | 1015.6 |
| 20260903031005 | 55 | 92 | 2.0 | 3.0 | 0.00 | 0.07 | 0.00 | 93 | 1015.7 |
| 20260903030504 | 56 | 92 | 2.0 | 3.0 | 0.00 | 0.08 | 0.00 | 93 | 1015.8 |
| 20260903030005 | 56 | 94 | 2.0 | 3.0 | 0.00 | 0.09 | 0.00 | 93 | 1015.7 |
| 20260903025505 | 56 | 96 | 2.0 | 3.0 | 0.00 | 0.09 | 0.00 | 93 | 1015.7 |
| 20260903025004 | 56 | 96 | 2.0 | 3.0 | 0.00 | 0.10 | 0.00 | 93 | 1015.8 |
| 20260903024525 | 56 | 100 | 2.0 | 4.0 | 0.00 | 0.11 | 0.00 | 93 | 1015.8 |
| 20260903024004 | 56 | 103 | 2.0 | 4.0 | 0.00 | 0.12 | 0.00 | 93 | 1016.0 |
| 20260903023527 | 56 | 104 | 2.0 | 4.0 | 0.00 | 0.12 | 0.00 | 93 | 1015.8 |
| 20260903023025 | 56 | 109 | 3.0 | 4.0 | 0.00 | 0.12 | 0.00 | 93 | 1015.9 |
| 20260903022505 | 56 | 114 | 3.0 | 6.0 | 0.00 | 0.12 | 0.00 | 93 | 1015.8 |
| 20260903022004 | 56 | 113 | 3.0 | 6.0 | 0.00 | 0.12 | 0.00 | 93 | 1015.8 |
| 20260903021504 | 56 | 106 | 2.0 | 4.0 | 0.00 | 0.12 | 0.00 | 94 | 1016.1 |
| 20260903021004 | 56 | 104 | 2.0 | 4.0 | 0.00 | 0.13 | 0.00 | 94 | 1015.9 |
| 20260903020505 | 56 | 108 | 2.0 | 4.0 | 0.00 | 0.13 | 0.00 | 94 | 1016.0 |
| 20260903020004 | 56 | 111 | 2.0 | 6.0 | 0.00 | 0.15 | 0.00 | 95 | 1016.1 |
| 20260903015504 | 55 | 104 | 2.0 | 6.0 | 0.00 | 0.15 | 0.00 | 95 | 1016.0 |
| 20260903015025 | 55 | 108 | 2.0 | 3.0 | 0.00 | 0.16 | 0.00 | 96 | 1016.0 |
| 20260903014506 | 55 | 122 | 2.0 | 3.0 | 0.00 | 0.16 | 0.00 | 96 | 1015.9 |
| 20260903014026 | 54 | 122 | 2.0 | 3.0 | 0.00 | 0.16 | 0.00 | 96 | 1016.0 |
| 20260903013504 | 54 | 122 | 2.0 | 3.0 | 0.00 | 0.16 | 0.00 | 96 | 1016.0 |
| 20260903013005 | 54 | 122 | 2.0 | 3.0 | 0.00 | 0.16 | 0.00 | 97 | 1016.0 |
| 20260903012504 | 54 | 122 | 2.0 | 3.0 | 0.00 | 0.16 | 0.00 | 96 | 1015.9 |
| 20260903012004 | 54 | 122 | 2.0 | 4.0 | 0.00 | 0.16 | 0.00 | 96 | 1015.8 |
| 20260903011505 | 54 | 119 | 2.0 | 4.0 | 0.00 | 0.16 | 0.00 | 96 | 1015.9 |
| 20260903011005 | 54 | 115 | 2.0 | 4.0 | 0.00 | 0.16 | 0.00 | 96 | 1015.9 |
| 20260903010504 | 54 | 113 | 2.0 | 3.0 | 0.00 | 0.16 | 0.00 | 96 | 1015.8 |
| 20260903010026 | 54 | 107 | 2.0 | 3.0 | 0.00 | 0.16 | 0.00 | 96 | 1016.0 |
| 20260903005505 | 54 | 104 | 2.0 | 3.0 | 0.00 | 0.16 | 0.00 | 96 | 1016.1 |
| 20260903005025 | 54 | 105 | 2.0 | 3.0 | 0.00 | 0.16 | 0.00 | 97 | 1016.2 |
| 20260903004505 | 55 | 109 | 2.0 | 3.0 | 0.00 | 0.16 | 0.00 | 97 | 1016.0 |
| 20260903004005 | 55 | 118 | 2.0 | 3.0 | 0.00 | 0.16 | 0.00 | 97 | 1016.1 |
| 20260903003504 | 55 | 121 | 2.0 | 4.0 | 0.00 | 0.16 | 0.00 | 98 | 1016.0 |
| 20260903003004 | 55 | 121 | 2.0 | 4.0 | 0.00 | 0.17 | 0.00 | 98 | 1015.8 |
| 20260903002505 | 55 | 121 | 2.0 | 3.0 | 0.00 | 0.17 | 0.00 | 98 | 1015.9 |
| 20260903002004 | 55 | 121 | 2.0 | 4.0 | 0.00 | 0.17 | 0.00 | 98 | 1015.8 |
| 20260903001504 | 55 | 120 | 3.0 | 4.0 | 0.00 | 0.17 | 0.00 | 98 | 1016.0 |
| 20260903001004 | 55 | 122 | 3.0 | 4.0 | 0.00 | 0.17 | 0.00 | 98 | 1015.9 |
| 20260903000504 | 55 | 124 | 2.0 | 4.0 | 0.00 | 0.17 | 0.00 | 98 | 1015.9 |
| 20260903000004 | 55 | 125 | 2.0 | 4.0 | 0.00 | 0.17 | 0.00 | 99 | 1016.1 |
| 20260902235505 | 55 | 123 | 2.0 | 4.0 | 0.00 | 0.18 | 0.00 | 99 | 1016.0 |
| 20260902235005 | 54 | 121 | 2.0 | 4.0 | 0.00 | 0.18 | 0.00 | 99 | 1016.2 |
| 20260902234504 | 54 | 122 | 2.0 | 4.0 | 0.00 | 0.18 | 0.00 | 99 | 1016.2 |
| 20260902234005 | 54 | 122 | 2.0 | 3.0 | 0.00 | 0.18 | 0.00 | 99 | 1016.0 |
| 20260902233504 | 53 | 122 | 2.0 | 4.0 | 0.00 | 0.18 | 0.00 | 99 | 1016.3 |
| 20260902233004 | 53 | 122 | 2.0 | 4.0 | 0.00 | 0.18 | 0.00 | 98 | 1016.2 |
| 20260902232504 | 53 | 122 | 2.0 | 3.0 | 0.00 | 0.18 | 0.00 | 98 | 1016.3 |
| 20260902232005 | 53 | 122 | 2.0 | 3.0 | 0.00 | 0.18 | 0.00 | 98 | 1016.4 |
| 20260902231504 | 53 | 122 | 2.0 | 3.0 | 0.00 | 0.18 | 0.00 | 98 | 1016.4 |
| 20260902231025 | 53 | 122 | 2.0 | 3.0 | 0.00 | 0.18 | 0.00 | 98 | 1016.4 |
| 20260902230504 | 53 | 122 | 2.0 | 3.0 | 0.00 | 0.18 | 0.00 | 98 | 1016.4 |
| 20260902230026 | 53 | 122 | 2.0 | 3.0 | 0.00 | 0.18 | 0.00 | 98 | 1016.4 |
| 20260902225504 | 54 | 120 | 2.0 | 4.0 | 0.00 | 0.18 | 0.00 | 98 | 1016.4 |
| 20260902225004 | 54 | 120 | 2.0 | 4.0 | 0.00 | 0.18 | 0.00 | 98 | 1016.4 |
| 20260902224504 | 54 | 120 | 3.0 | 4.0 | 0.00 | 0.18 | 0.00 | 98 | 1016.2 |
| 20260902224005 | 54 | 120 | 3.0 | 4.0 | 0.00 | 0.18 | 0.00 | 98 | 1016.3 |
| 20260902223505 | 54 | 120 | 2.0 | 4.0 | 0.00 | 0.18 | 0.00 | 98 | 1016.3 |
| 20260902223005 | 54 | 120 | 2.0 | 3.0 | 0.00 | 0.18 | 0.00 | 97 | 1016.3 |
| 20260902222505 | 54 | 119 | 2.0 | 4.0 | 0.00 | 0.18 | 0.00 | 97 | 1016.3 |
| 20260902222004 | 54 | 118 | 2.0 | 4.0 | 0.00 | 0.18 | 0.00 | 97 | 1016.3 |
| 20260902221504 | 54 | 117 | 2.0 | 4.0 | 0.00 | 0.18 | 0.00 | 97 | 1016.3 |
| 20260902221004 | 54 | 117 | 2.0 | 3.0 | 0.00 | 0.18 | 0.00 | 97 | 1016.3 |
| 20260902220504 | 54 | 117 | 2.0 | 3.0 | 0.00 | 0.18 | 0.00 | 97 | 1016.3 |
| 20260902220027 | 54 | 117 | 2.0 | 3.0 | 0.00 | 0.18 | 0.00 | 97 | 1016.5 |
| 20260902215505 | 54 | 117 | 2.0 | 3.0 | 0.00 | 0.18 | 0.18 | 97 | 1016.5 |
| 20260902215004 | 54 | 117 | 1.0 | 3.0 | 0.00 | 0.18 | 0.18 | 97 | 1016.5 |
| 20260902214505 | 54 | 117 | 1.0 | 2.0 | 0.00 | 0.18 | 0.18 | 97 | 1016.5 |
| 20260902214004 | 54 | 117 | 1.0 | 3.0 | 0.00 | 0.18 | 0.18 | 97 | 1016.6 |
| 20260902213504 | 54 | 117 | 2.0 | 4.0 | 0.00 | 0.18 | 0.18 | 97 | 1016.5 |
| 20260902213004 | 54 | 115 | 2.0 | 4.0 | 0.00 | 0.18 | 0.18 | 97 | 1016.7 |
| 20260902212505 | 54 | 113 | 2.0 | 3.0 | 0.00 | 0.18 | 0.18 | 97 | 1016.6 |
| 20260902212004 | 54 | 113 | 2.0 | 3.0 | 0.00 | 0.18 | 0.18 | 97 | 1016.5 |
| 20260902211504 | 54 | 113 | 2.0 | 4.0 | 0.00 | 0.18 | 0.18 | 97 | 1016.5 |
| 20260902211004 | 54 | 109 | 2.0 | 4.0 | 0.00 | 0.18 | 0.18 | 97 | 1016.6 |
| 20260902210505 | 54 | 104 | 2.0 | 3.0 | 0.00 | 0.18 | 0.18 | 96 | 1016.6 |
| 20260902210004 | 55 | 104 | 2.0 | 3.0 | 0.00 | 0.18 | 0.18 | 96 | 1016.6 |
| 20260902205504 | 55 | 104 | 2.0 | 3.0 | 0.00 | 0.18 | 0.18 | 96 | 1016.8 |
| 20260902205004 | 55 | 104 | 2.0 | 3.0 | 0.00 | 0.18 | 0.18 | 96 | 1016.6 |
| 20260902204504 | 55 | 104 | 2.0 | 2.0 | 0.00 | 0.18 | 0.18 | 96 | 1016.8 |
| 20260902204004 | 55 | 103 | 2.0 | 3.0 | 0.00 | 0.18 | 0.18 | 96 | 1016.7 |
| 20260902203504 | 55 | 99 | 2.0 | 3.0 | 0.00 | 0.18 | 0.18 | 96 | 1016.5 |
| 20260902203004 | 56 | 96 | 2.0 | 3.0 | 0.00 | 0.18 | 0.18 | 95 | 1016.7 |
| 20260902202503 | 56 | 95 | 2.0 | 3.0 | 0.00 | 0.18 | 0.18 | 95 | 1016.7 |
| 20260902202004 | 56 | 95 | 2.0 | 3.0 | 0.00 | 0.18 | 0.18 | 95 | 1016.7 |
| 20260902201504 | 56 | 93 | 2.0 | 2.0 | 0.00 | 0.18 | 0.18 | 95 | 1016.8 |
| 20260902201026 | 56 | 96 | 2.0 | 3.0 | 0.00 | 0.18 | 0.18 | 95 | 1016.7 |
| 20260902200505 | 56 | 98 | 2.0 | 3.0 | 0.00 | 0.18 | 0.18 | 95 | 1016.8 |
| 20260902200005 | 56 | 98 | 2.0 | 3.0 | 0.00 | 0.18 | 0.18 | 95 | 1016.8 |
| 20260902195504 | 57 | 103 | 2.0 | 3.0 | 0.00 | 0.18 | 0.18 | 95 | 1016.8 |
| 20260902195005 | 56 | 110 | 2.0 | 3.0 | 0.00 | 0.19 | 0.18 | 95 | 1016.7 |
| 20260902194504 | 57 | 114 | 2.0 | 3.0 | 0.00 | 0.21 | 0.18 | 94 | 1016.8 |
| 20260902194004 | 57 | 114 | 2.0 | 3.0 | 0.00 | 0.21 | 0.18 | 94 | 1016.7 |
| 20260902193526 | 57 | 110 | 2.0 | 3.0 | 0.00 | 0.22 | 0.18 | 94 | 1016.8 |
| 20260902193026 | 57 | 103 | 2.0 | 3.0 | 0.00 | 0.22 | 0.18 | 94 | 1016.8 |
| 20260902192504 | 57 | 98 | 2.0 | 3.0 | 0.00 | 0.23 | 0.18 | 93 | 1016.9 |
| 20260902192005 | 57 | 93 | 2.0 | 3.0 | 0.00 | 0.23 | 0.18 | 93 | 1017.0 |
| 20260902191526 | 57 | 91 | 1.0 | 3.0 | 0.00 | 0.23 | 0.18 | 93 | 1017.0 |
| 20260902191004 | 58 | 87 | 1.0 | 3.0 | 0.00 | 0.23 | 0.18 | 93 | 1016.9 |
| 20260902190505 | 58 | 81 | 1.0 | 2.0 | 0.00 | 0.23 | 0.18 | 93 | 1017.0 |
| 20260902190005 | 58 | 76 | 1.0 | 2.0 | 0.00 | 0.23 | 0.18 | 93 | 1017.1 |
| 20260902185504 | 58 | 75 | 1.0 | 2.0 | 0.00 | 0.23 | 0.18 | 93 | 1017.2 |
| 20260902185005 | 58 | 77 | 1.0 | 2.0 | 0.00 | 0.23 | 0.18 | 93 | 1017.1 |
| 20260902184503 | 58 | 76 | 1.0 | 2.0 | 0.00 | 0.23 | 0.18 | 93 | 1017.2 |
| 20260902184004 | 58 | 72 | 1.0 | 2.0 | 0.00 | 0.23 | 0.18 | 94 | 1017.1 |
| 20260902183525 | 58 | 67 | 1.0 | 2.0 | 0.00 | 0.23 | 0.18 | 94 | 1017.2 |
| 20260902183026 | 58 | 65 | 1.0 | 2.0 | 0.00 | 0.23 | 0.18 | 94 | 1017.1 |
| 20260902182525 | 58 | 64 | 0.0 | 1.0 | 0.00 | 0.23 | 0.18 | 93 | 1017.1 |
| 20260902182004 | 58 | 64 | 0.0 | 1.0 | 0.00 | 0.23 | 0.18 | 93 | 1017.0 |
| 20260902181503 | 58 | 64 | 0.0 | 1.0 | 0.00 | 0.23 | 0.18 | 93 | 1017.1 |
| 20260902181004 | 58 | 0 | 0.0 | 0.0 | 0.00 | 0.23 | 0.18 | 92 | 1017.1 |
| 20260902180505 | 58 | 0 | 0.0 | 0.0 | 0.00 | 0.23 | 0.18 | 92 | 1017.0 |
| 20260902180006 | 58 | 0 | 0.0 | 0.0 | 0.00 | 0.23 | 0.18 | 91 | 1017.1 |
| 20260902175504 | 58 | 0 | 0.0 | 0.0 | 0.00 | 0.23 | 0.18 | 90 | 1017.1 |
| 20260902175005 | 59 | 0 | 0.0 | 0.0 | 0.00 | 0.23 | 0.18 | 90 | 1016.9 |
| 20260902174505 | 59 | 0 | 0.0 | 0.0 | 0.00 | 0.23 | 0.18 | 89 | 1016.8 |
| 20260902174004 | 59 | 64 | 0.0 | 1.0 | 0.00 | 0.23 | 0.18 | 88 | 1017.0 |
| 20260902173503 | 60 | 64 | 0.0 | 1.0 | 0.00 | 0.23 | 0.18 | 87 | 1017.0 |
| 20260902173005 | 60 | 64 | 0.0 | 1.0 | 0.00 | 0.23 | 0.18 | 86 | 1017.0 |
| 20260902172504 | 60 | 63 | 0.0 | 2.0 | 0.00 | 0.23 | 0.18 | 85 | 1017.0 |
| 20260902172004 | 61 | 60 | 1.0 | 2.0 | 0.00 | 0.23 | 0.18 | 84 | 1017.1 |
| 20260902171503 | 61 | 44 | 1.0 | 2.0 | 0.00 | 0.23 | 0.18 | 82 | 1017.2 |
| 20260902171004 | 61 | 39 | 1.0 | 2.0 | 0.00 | 0.23 | 0.18 | 82 | 1017.2 |
| 20260902170503 | 61 | 48 | 1.0 | 3.0 | 0.00 | 0.23 | 0.18 | 80 | 1017.1 |
| 20260902170004 | 62 | 24 | 1.0 | 3.0 | 0.00 | 0.23 | 0.18 | 80 | 1017.2 |
| 20260902165504 | 62 | 34 | 1.0 | 3.0 | 0.00 | 0.23 | 0.18 | 79 | 1017.0 |
| 20260902165004 | 62 | 66 | 1.0 | 3.0 | 0.00 | 0.23 | 0.18 | 78 | 1017.1 |
| 20260902164503 | 62 | 248 | 1.0 | 4.0 | 0.00 | 0.23 | 0.18 | 78 | 1017.1 |
| 20260902164004 | 62 | 307 | 1.0 | 4.0 | 0.00 | 0.23 | 0.18 | 77 | 1017.2 |
| 20260902163504 | 62 | 344 | 2.0 | 4.0 | 0.00 | 0.23 | 0.18 | 77 | 1017.2 |
| 20260902163003 | 63 | 356 | 2.0 | 4.0 | 0.00 | 0.23 | 0.18 | 76 | 1017.1 |
| 20260902162504 | 63 | 10 | 2.0 | 8.0 | 0.00 | 0.23 | 0.18 | 78 | 1017.0 |
| 20260902162004 | 63 | 7 | 2.0 | 8.0 | 0.00 | 0.23 | 0.18 | 76 | 1017.1 |
| 20260902161505 | 63 | 12 | 1.0 | 7.0 | 0.00 | 0.23 | 0.18 | 77 | 1017.0 |
| 20260902161004 | 64 | 14 | 2.0 | 7.0 | 0.00 | 0.23 | 0.18 | 77 | 1016.9 |
| 20260902160504 | 64 | 346 | 2.0 | 7.0 | 0.00 | 0.23 | 0.18 | 76 | 1017.2 |
| 20260902160006 | 64 | 335 | 2.0 | 7.0 | 0.00 | 0.23 | 0.18 | 76 | 1017.0 |
| 20260902155505 | 63 | 345 | 2.0 | 7.0 | 0.00 | 0.23 | 0.18 | 78 | 1017.1 |
| 20260902155025 | 64 | 350 | 2.0 | 8.0 | 0.00 | 0.23 | 0.18 | 76 | 1017.1 |
| 20260902154504 | 64 | 332 | 2.0 | 8.0 | 0.00 | 0.23 | 0.18 | 76 | 1017.1 |
| 20260902154004 | 64 | 353 | 2.0 | 6.0 | 0.00 | 0.23 | 0.18 | 75 | 1017.1 |
| 20260902153504 | 64 | 3 | 2.0 | 7.0 | 0.00 | 0.23 | 0.18 | 74 | 1017.1 |
| 20260902153005 | 64 | 332 | 2.0 | 7.0 | 0.00 | 0.23 | 0.18 | 75 | 1017.2 |
| 20260902152504 | 64 | 253 | 2.0 | 8.0 | 0.00 | 0.23 | 0.18 | 74 | 1017.2 |
| 20260902152004 | 64 | 294 | 2.0 | 8.0 | 0.00 | 0.23 | 0.18 | 75 | 1017.2 |
| 20260902151505 | 64 | 358 | 2.0 | 8.0 | 0.00 | 0.23 | 0.18 | 77 | 1017.1 |
| 20260902151005 | 64 | 14 | 2.0 | 7.0 | 0.00 | 0.23 | 0.18 | 75 | 1017.2 |
| 20260902150504 | 64 | 7 | 2.0 | 7.0 | 0.00 | 0.23 | 0.18 | 75 | 1017.1 |